createdAt,value
2023-02-26T00:01:01.569Z,4.72
2023-02-26T00:03:29.488Z,4.95
2023-02-26T00:05:59.600Z,5.07
2023-02-26T00:08:26.266Z,4.30
2023-02-26T00:10:54.898Z,6.07
2023-02-26T00:13:21.709Z,6.22
2023-02-26T00:15:50.282Z,7.50
2023-02-26T00:18:17.523Z,5.32
2023-02-26T00:20:44.303Z,5.35
2023-02-26T00:23:16.881Z,4.38
2023-02-26T00:25:43.429Z,5.15
2023-02-26T00:28:10.080Z,4.32
2023-02-26T00:30:36.851Z,3.30
2023-02-26T00:33:03.595Z,3.45
2023-02-26T00:35:30.237Z,3.00
2023-02-26T00:38:04.852Z,4.03
2023-02-26T00:40:44.695Z,4.00
2023-02-26T00:43:18.855Z,5.00
2023-02-26T00:46:03.894Z,5.25
2023-02-26T00:48:38.297Z,4.30
2023-02-26T00:51:07.578Z,3.72
2023-02-26T00:54:00.404Z,3.30
2023-02-26T00:56:27.121Z,3.50
2023-02-26T00:58:53.574Z,3.40
2023-02-26T01:01:20.071Z,2.88
2023-02-26T01:03:46.842Z,6.07
2023-02-26T01:06:15.596Z,4.43
2023-02-26T01:08:52.196Z,4.00
2023-02-26T01:11:18.720Z,3.13
2023-02-26T01:13:45.342Z,2.95
2023-02-26T01:16:13.132Z,3.42
2023-02-26T01:18:44.643Z,4.00
2023-02-26T01:21:15.262Z,3.80
2023-02-26T01:23:43.621Z,3.10
2023-02-26T01:26:20.608Z,1.98
2023-02-26T01:28:47.243Z,1.92
2023-02-26T01:31:25.431Z,2.05
2023-02-26T01:33:55.855Z,2.35
2023-02-26T01:36:28.208Z,2.83
2023-02-26T01:39:02.505Z,2.40
2023-02-26T01:41:31.294Z,2.78
2023-02-26T01:44:14.497Z,2.40
2023-02-26T01:46:47.020Z,2.25
2023-02-26T01:49:15.162Z,2.22
2023-02-26T01:51:47.598Z,2.08
2023-02-26T01:54:15.182Z,2.22
2023-02-26T01:56:43.222Z,3.03
2023-02-26T01:59:11.427Z,4.63
2023-02-26T02:01:38.899Z,3.28
2023-02-26T02:04:06.373Z,2.90
2023-02-26T02:06:32.926Z,3.55
2023-02-26T02:08:59.451Z,3.55
2023-02-26T02:11:25.911Z,3.75
2023-02-26T02:13:55.221Z,3.80
2023-02-26T02:16:21.753Z,4.60
2023-02-26T02:19:00.360Z,3.58
2023-02-26T02:21:36.084Z,3.10
2023-02-26T02:24:11.677Z,3.22
2023-02-26T02:26:47.053Z,3.08
2023-02-26T02:29:31.785Z,3.80
2023-02-26T02:32:06.508Z,4.00
2023-02-26T02:34:42.146Z,4.05
2023-02-26T02:37:27.315Z,2.90
2023-02-26T02:39:57.698Z,2.05
2023-02-26T02:42:31.369Z,2.10
2023-02-26T02:45:07.590Z,2.67
2023-02-26T02:47:35.407Z,3.15
2023-02-26T02:50:05.024Z,3.38
2023-02-26T02:52:35.619Z,3.25
2023-02-26T02:55:05.194Z,3.35
2023-02-26T02:57:37.464Z,3.35
2023-02-26T03:00:07.258Z,3.78
2023-02-26T03:02:36.931Z,3.75
2023-02-26T03:05:03.617Z,3.90
2023-02-26T03:07:36.391Z,3.13
2023-02-26T03:10:02.883Z,3.22
2023-02-26T03:12:32.171Z,3.60
2023-02-26T03:14:59.068Z,3.42
2023-02-26T03:17:48.533Z,2.92
2023-02-26T03:20:25.361Z,2.78
2023-02-26T03:22:56.553Z,2.80
2023-02-26T03:25:28.838Z,1.58
2023-02-26T03:27:55.236Z,2.53
2023-02-26T03:30:24.593Z,3.15
2023-02-26T03:33:17.322Z,3.22
2023-02-26T03:35:52.921Z,2.80
2023-02-26T03:38:28.731Z,2.35
2023-02-26T03:40:57.960Z,2.50
2023-02-26T03:43:30.214Z,2.38
2023-02-26T03:45:58.483Z,2.95
2023-02-26T03:48:26.531Z,3.13
2023-02-26T03:50:55.245Z,2.78
2023-02-26T03:53:31.514Z,3.75
2023-02-26T03:55:57.997Z,3.00
2023-02-26T03:58:24.497Z,2.80
2023-02-26T04:00:53.165Z,1.92
2023-02-26T04:03:26.974Z,2.30
2023-02-26T04:05:54.065Z,2.47
2023-02-26T04:08:21.583Z,2.55
2023-02-26T04:10:52.962Z,2.25
2023-02-26T04:13:19.506Z,2.55
2023-02-26T04:15:45.975Z,2.83
2023-02-26T04:18:12.440Z,2.40
2023-02-26T04:20:38.921Z,2.53
2023-02-26T04:23:05.359Z,2.47
2023-02-26T04:25:31.890Z,1.83
2023-02-26T04:27:58.360Z,1.75
2023-02-26T04:30:24.903Z,2.13
2023-02-26T04:32:51.332Z,2.13
2023-02-26T04:35:17.880Z,1.92
2023-02-26T04:37:44.600Z,1.80
2023-02-26T04:40:11.505Z,1.70
2023-02-26T04:42:38.059Z,1.90
2023-02-26T04:45:04.658Z,1.83
2023-02-26T04:47:31.157Z,1.60
2023-02-26T04:49:57.641Z,1.60
2023-02-26T04:52:24.188Z,1.80
2023-02-26T04:54:50.699Z,1.85
2023-02-26T04:57:17.214Z,1.75
2023-02-26T04:59:43.722Z,1.45
2023-02-26T05:02:10.250Z,1.77
2023-02-26T05:04:36.805Z,1.98
2023-02-26T05:07:03.291Z,1.52
2023-02-26T05:09:29.717Z,1.85
2023-02-26T05:11:56.114Z,1.77
2023-02-26T05:14:22.617Z,1.88
2023-02-26T05:16:49.203Z,2.00
2023-02-26T05:19:15.963Z,2.00
2023-02-26T05:21:42.420Z,1.70
2023-02-26T05:24:08.917Z,1.77
2023-02-26T05:26:35.405Z,2.10
2023-02-26T05:29:02.533Z,2.22
2023-02-26T05:31:29.981Z,2.42
2023-02-26T05:33:56.523Z,2.42
2023-02-26T05:36:23.408Z,2.25
2023-02-26T05:38:50.100Z,2.53
2023-02-26T05:41:16.555Z,2.25
2023-02-26T05:43:42.993Z,2.30
2023-02-26T05:46:09.492Z,2.22
2023-02-26T05:48:36.015Z,2.22
2023-02-26T05:51:02.973Z,2.28
2023-02-26T05:53:29.755Z,2.63
2023-02-26T05:55:56.370Z,2.33
2023-02-26T05:58:22.936Z,2.90
2023-02-26T06:00:49.499Z,2.40
2023-02-26T06:03:15.984Z,2.42
2023-02-26T06:05:42.481Z,3.55
2023-02-26T06:08:08.942Z,3.25
2023-02-26T06:10:35.412Z,3.10
2023-02-26T06:13:01.828Z,4.07
2023-02-26T06:15:28.255Z,4.75
2023-02-26T06:17:54.744Z,4.03
2023-02-26T06:20:21.256Z,3.83
2023-02-26T06:22:47.659Z,4.60
2023-02-26T06:25:14.099Z,3.45
2023-02-26T06:27:40.614Z,4.20
2023-02-26T06:30:07.338Z,3.22
2023-02-26T06:32:33.969Z,2.65
2023-02-26T06:35:00.404Z,2.90
2023-02-26T06:37:27.148Z,3.30
2023-02-26T06:39:53.622Z,3.65
2023-02-26T06:42:20.320Z,3.17
2023-02-26T06:44:46.990Z,3.92
2023-02-26T06:47:13.486Z,4.25
2023-02-26T06:49:39.983Z,3.55
2023-02-26T06:52:06.657Z,3.70
2023-02-26T06:54:33.099Z,3.38
2023-02-26T06:57:00.457Z,3.38
2023-02-26T06:59:26.945Z,3.28
2023-02-26T07:01:53.424Z,2.95
2023-02-26T07:04:20.749Z,2.90
2023-02-26T07:06:47.290Z,2.83
2023-02-26T07:09:13.777Z,2.60
2023-02-26T07:11:40.263Z,3.25
2023-02-26T07:14:06.656Z,4.20
2023-02-26T07:16:33.199Z,3.75
2023-02-26T07:18:59.727Z,4.30
2023-02-26T07:21:26.203Z,3.95
2023-02-26T07:23:52.617Z,3.85
2023-02-26T07:26:19.071Z,4.03
2023-02-26T07:28:45.582Z,3.92
2023-02-26T07:31:12.220Z,3.30
2023-02-26T07:33:40.002Z,4.05
2023-02-26T07:36:06.693Z,4.10
2023-02-26T07:38:33.226Z,4.40
2023-02-26T07:40:59.914Z,4.25
2023-02-26T07:43:26.335Z,4.55
2023-02-26T07:45:53.333Z,4.35
2023-02-26T07:48:20.006Z,4.90
2023-02-26T07:50:46.923Z,4.68
2023-02-26T07:53:13.509Z,4.50
2023-02-26T07:55:39.963Z,4.57
2023-02-26T07:58:06.473Z,4.03
2023-02-26T08:00:33.320Z,3.63
2023-02-26T08:02:59.792Z,10.77
2023-02-26T08:05:27.755Z,7.47
2023-02-26T08:07:55.477Z,3.58
2023-02-26T08:10:21.949Z,2.97
2023-02-26T08:12:48.490Z,3.97
2023-02-26T08:15:15.052Z,3.60
2023-02-26T08:17:41.674Z,3.92
2023-02-26T08:20:08.844Z,3.28
2023-02-26T08:22:35.370Z,3.58
2023-02-26T08:25:01.842Z,3.42
2023-02-26T08:27:28.297Z,3.45
2023-02-26T08:29:54.813Z,3.58
2023-02-26T08:32:23.157Z,3.03
2023-02-26T08:34:49.758Z,2.70
2023-02-26T08:37:16.208Z,3.35
2023-02-26T08:39:42.660Z,4.00
2023-02-26T08:42:09.452Z,4.35
2023-02-26T08:44:35.973Z,4.18
2023-02-26T08:47:03.803Z,4.35
2023-02-26T08:49:30.226Z,5.38
2023-02-26T08:51:56.650Z,4.50
2023-02-26T08:54:23.441Z,4.32
2023-02-26T08:56:49.964Z,5.57
2023-02-26T08:59:16.479Z,5.55
2023-02-26T09:01:43.090Z,7.07
2023-02-26T09:04:09.695Z,6.50
2023-02-26T09:06:36.328Z,6.03
2023-02-26T09:09:03.269Z,7.38
2023-02-26T09:11:30.817Z,6.82
2023-02-26T09:13:59.091Z,6.30
2023-02-26T09:16:26.677Z,5.35
2023-02-26T09:18:53.569Z,7.57
2023-02-26T09:21:19.999Z,7.30
2023-02-26T09:23:46.486Z,6.60
2023-02-26T09:26:13.053Z,7.22
2023-02-26T09:28:39.548Z,6.40
2023-02-26T09:31:07.338Z,6.15
2023-02-26T09:33:34.224Z,6.18
2023-02-26T09:36:00.789Z,5.88
2023-02-26T09:38:27.367Z,6.20
2023-02-26T09:41:01.569Z,6.65
2023-02-26T09:43:54.201Z,5.93
2023-02-26T09:46:29.775Z,5.63
2023-02-26T09:49:03.769Z,16.65
2023-02-26T09:51:31.352Z,21.15
2023-02-26T09:54:00.955Z,13.77
2023-02-26T09:56:28.022Z,7.47
2023-02-26T09:58:55.647Z,8.73
2023-02-26T10:01:45.205Z,8.50
2023-02-26T10:04:30.420Z,6.68
2023-02-26T10:06:59.748Z,6.85
2023-02-26T10:09:34.801Z,12.82
2023-02-26T10:12:03.978Z,7.05
2023-02-26T10:14:38.845Z,7.00
2023-02-26T10:17:23.916Z,7.80
2023-02-26T10:19:54.086Z,6.95
2023-02-26T10:22:39.061Z,7.10
2023-02-26T10:25:16.550Z,8.65
2023-02-26T10:27:58.223Z,8.25
2023-02-26T10:30:27.469Z,7.82
2023-02-26T10:32:58.113Z,8.48
2023-02-26T10:35:27.205Z,10.05
2023-02-26T10:37:57.164Z,7.90
2023-02-26T10:40:33.053Z,12.38
2023-02-26T10:43:04.755Z,11.32
2023-02-26T10:45:43.283Z,11.75
2023-02-26T10:48:09.756Z,9.75
2023-02-26T10:50:36.444Z,21.92
2023-02-26T10:53:04.021Z,25.00
2023-02-26T10:55:48.490Z,23.13
2023-02-26T10:58:16.492Z,26.33
2023-02-26T11:00:44.723Z,25.67
2023-02-26T11:03:32.421Z,22.52
2023-02-26T11:05:59.034Z,24.40
2023-02-26T11:08:32.138Z,25.10
2023-02-26T11:11:00.233Z,23.55
2023-02-26T11:13:27.809Z,25.15
2023-02-26T11:15:55.390Z,32.95
2023-02-26T11:18:24.702Z,31.00
2023-02-26T11:20:53.419Z,24.33
2023-02-26T11:23:21.789Z,28.77
2023-02-26T11:25:52.731Z,39.78
2023-02-26T11:28:20.830Z,31.30
2023-02-26T11:30:49.349Z,29.15
2023-02-26T11:33:22.386Z,29.25
2023-02-26T11:35:49.306Z,30.67
2023-02-26T11:38:20.426Z,33.55
2023-02-26T11:40:48.794Z,34.53
2023-02-26T11:43:16.986Z,31.52
2023-02-26T11:45:44.692Z,41.63
2023-02-26T11:48:13.933Z,28.27
2023-02-26T11:50:46.316Z,36.53
2023-02-26T11:53:17.586Z,33.53
2023-02-26T11:55:48.005Z,29.80
2023-02-26T12:00:42.122Z,34.53
2023-02-26T12:03:15.728Z,33.70
2023-02-26T12:05:42.265Z,34.92
2023-02-26T12:08:18.499Z,31.83
2023-02-26T12:10:54.508Z,34.58
2023-02-26T12:13:21.020Z,27.88
2023-02-26T12:15:53.424Z,34.30
2023-02-26T12:18:42.811Z,28.60
2023-02-26T12:21:12.027Z,27.42
2023-02-26T12:23:41.570Z,28.83
2023-02-26T12:26:27.131Z,28.63
2023-02-26T12:29:05.836Z,27.58
2023-02-26T12:31:41.289Z,28.90
2023-02-26T12:34:26.561Z,29.92
2023-02-26T12:37:05.064Z,29.38
2023-02-26T12:40:06.603Z,31.85
2023-02-26T12:42:42.009Z,24.42
2023-02-26T12:45:12.268Z,32.45
2023-02-26T12:47:48.481Z,30.08
2023-02-26T12:50:33.295Z,28.50
2023-02-26T12:53:10.711Z,34.15
2023-02-26T12:55:38.002Z,30.08
2023-02-26T12:58:07.237Z,29.60
2023-02-26T13:00:56.590Z,29.92
2023-02-26T13:03:29.801Z,28.65
2023-02-26T13:06:16.527Z,26.23
2023-02-26T13:08:42.967Z,103.75
2023-02-26T13:11:12.422Z,42.25
2023-02-26T13:13:44.718Z,36.75
2023-02-26T13:16:29.809Z,32.33
2023-02-26T13:19:16.326Z,33.40
2023-02-26T13:21:48.040Z,30.55
2023-02-26T13:24:17.141Z,29.17
2023-02-26T13:26:44.267Z,32.25
2023-02-26T13:29:15.076Z,32.97
2023-02-26T13:31:50.832Z,22.33
2023-02-26T13:34:20.725Z,34.65
2023-02-26T13:36:48.144Z,34.67
2023-02-26T13:39:21.546Z,35.83
2023-02-26T13:41:50.948Z,36.83
2023-02-26T13:44:37.667Z,42.58
2023-02-26T13:47:10.919Z,40.78
2023-02-26T13:49:45.980Z,37.22
2023-02-26T13:52:22.846Z,37.33
2023-02-26T13:54:49.249Z,37.05
2023-02-26T13:57:44.896Z,37.42
2023-02-26T14:00:31.657Z,41.28
2023-02-26T14:03:01.004Z,40.17
2023-02-26T14:05:35.400Z,51.45
2023-02-26T14:08:01.791Z,42.58
2023-02-26T14:10:33.813Z,38.25
2023-02-26T14:13:15.507Z,33.90
2023-02-26T14:15:48.457Z,33.35
2023-02-26T14:18:33.669Z,39.42
2023-02-26T14:21:38.836Z,41.40
2023-02-26T14:24:20.632Z,41.45
2023-02-26T14:26:49.500Z,38.85
2023-02-26T14:29:19.766Z,50.08
2023-02-26T14:31:50.643Z,71.13
2023-02-26T14:34:24.864Z,57.47
2023-02-26T14:36:55.904Z,52.88
2023-02-26T14:39:28.321Z,47.30
2023-02-26T14:41:57.572Z,44.72
2023-02-26T14:44:26.185Z,46.00
2023-02-26T14:46:53.087Z,43.75
2023-02-26T14:49:31.175Z,46.13
2023-02-26T14:52:00.415Z,44.08
2023-02-26T14:54:43.662Z,47.72
2023-02-26T14:57:18.929Z,48.17
2023-02-26T14:59:45.447Z,43.08
2023-02-26T15:02:30.969Z,43.10
2023-02-26T15:05:00.344Z,59.55
2023-02-26T15:07:45.024Z,42.88
2023-02-26T15:10:30.278Z,46.60
2023-02-26T15:12:59.757Z,43.88
2023-02-26T15:15:37.918Z,45.10
2023-02-26T15:18:04.403Z,44.10
2023-02-26T15:20:30.905Z,44.13
2023-02-26T15:23:03.211Z,46.22
2023-02-26T15:25:31.226Z,38.20
2023-02-26T15:27:57.833Z,38.17
2023-02-26T15:30:24.787Z,38.78
2023-02-26T15:32:56.211Z,39.60
2023-02-26T15:35:23.133Z,40.40
2023-02-26T15:37:51.060Z,35.78
2023-02-26T15:40:18.073Z,33.22
2023-02-26T15:42:45.266Z,37.38
2023-02-26T15:45:27.872Z,47.63
2023-02-26T15:47:56.480Z,35.60
2023-02-26T15:50:25.902Z,34.38
2023-02-26T15:52:55.966Z,33.70
2023-02-26T15:55:22.542Z,32.97
2023-02-26T15:57:49.113Z,34.15
2023-02-26T16:00:16.713Z,32.92
2023-02-26T16:02:44.311Z,31.20
2023-02-26T16:05:13.250Z,32.53
2023-02-26T16:07:42.614Z,31.40
2023-02-26T16:10:16.503Z,37.80
2023-02-26T16:12:43.903Z,33.50
2023-02-26T16:15:15.779Z,30.55
2023-02-26T16:20:14.287Z,29.92
2023-02-26T16:22:44.362Z,28.63
2023-02-26T16:25:24.985Z,30.00
2023-02-26T16:27:57.455Z,27.50
2023-02-26T16:30:26.320Z,28.25
2023-02-26T16:32:54.288Z,39.10
2023-02-26T16:35:25.183Z,30.35
2023-02-26T16:37:53.461Z,28.75
2023-02-26T16:40:34.151Z,31.20
2023-02-26T16:43:02.553Z,29.48
2023-02-26T16:45:34.846Z,28.75
2023-02-26T16:48:03.549Z,29.33
2023-02-26T16:50:32.068Z,29.15
2023-02-26T16:53:00.439Z,28.05
2023-02-26T16:55:29.615Z,30.15
2023-02-26T16:57:56.461Z,56.50
2023-02-26T17:00:31.863Z,36.47
2023-02-26T17:03:06.288Z,31.85
2023-02-26T17:05:34.543Z,30.98
2023-02-26T17:08:05.571Z,25.83
2023-02-26T17:10:33.994Z,20.30
2023-02-26T17:13:11.966Z,21.58
2023-02-26T17:15:38.992Z,20.67
2023-02-26T17:18:05.571Z,19.90
2023-02-26T17:20:32.651Z,18.95
2023-02-26T17:23:00.207Z,19.50
2023-02-26T17:25:29.167Z,46.72
2023-02-26T17:27:56.337Z,25.98
2023-02-26T17:30:24.356Z,21.50
2023-02-26T17:32:50.804Z,19.92
2023-02-26T17:35:18.157Z,19.85
2023-02-26T17:37:46.816Z,20.35
2023-02-26T17:40:19.114Z,22.95
2023-02-26T17:42:46.880Z,20.52
2023-02-26T17:45:14.442Z,20.92
2023-02-26T17:47:41.267Z,22.25
2023-02-26T17:50:19.717Z,44.25
2023-02-26T17:52:46.120Z,24.88
2023-02-26T17:55:12.612Z,18.85
2023-02-26T17:57:39.099Z,18.35
2023-02-26T18:00:05.873Z,19.25
2023-02-26T18:02:32.445Z,18.60
2023-02-26T18:04:58.904Z,15.15
2023-02-26T18:07:25.433Z,16.63
2023-02-26T18:09:51.837Z,17.55
2023-02-26T18:12:19.620Z,17.50
2023-02-26T18:14:46.241Z,60.30
2023-02-26T18:17:33.776Z,25.63
2023-02-26T18:20:00.365Z,14.95
2023-02-26T18:22:27.776Z,13.10
2023-02-26T18:24:55.057Z,12.15
2023-02-26T18:27:22.650Z,12.68
2023-02-26T18:29:49.801Z,11.40
2023-02-26T18:32:17.725Z,12.38
2023-02-26T18:34:44.298Z,11.88
2023-02-26T18:37:14.542Z,12.13
2023-02-26T18:39:41.091Z,19.23
2023-02-26T18:42:07.778Z,11.90
2023-02-26T18:44:34.265Z,12.43
2023-02-26T18:47:01.184Z,13.20
2023-02-26T18:49:27.940Z,12.68
2023-02-26T18:51:54.715Z,13.68
2023-02-26T18:54:21.145Z,12.30
2023-02-26T18:56:47.661Z,10.77
2023-02-26T18:59:14.152Z,10.73
2023-02-26T19:01:41.078Z,11.35
2023-02-26T19:04:08.116Z,11.90
2023-02-26T19:06:34.682Z,12.60
2023-02-26T19:09:02.836Z,11.02
2023-02-26T19:11:29.634Z,11.40
2023-02-26T19:13:56.146Z,11.55
2023-02-26T19:16:23.230Z,12.13
2023-02-26T19:18:50.351Z,12.57
2023-02-26T19:21:18.158Z,13.35
2023-02-26T19:23:44.700Z,12.38
2023-02-26T19:26:11.224Z,10.45
2023-02-26T19:28:37.771Z,11.85
2023-02-26T19:31:06.347Z,13.65
2023-02-26T19:33:32.849Z,11.55
2023-02-26T19:35:59.623Z,12.70
2023-02-26T19:38:26.354Z,11.00
2023-02-26T19:40:53.068Z,11.18
2023-02-26T19:43:19.554Z,11.93
2023-02-26T19:45:46.052Z,10.75
2023-02-26T19:48:12.641Z,12.43
2023-02-26T19:50:39.215Z,12.77
2023-02-26T19:53:05.854Z,12.02
2023-02-26T19:55:32.393Z,33.92
2023-02-26T19:57:58.841Z,15.65
2023-02-26T20:00:25.349Z,12.55
2023-02-26T20:02:51.867Z,12.27
2023-02-26T20:05:18.404Z,12.48
2023-02-26T20:07:45.261Z,12.82
2023-02-26T20:10:12.170Z,13.40
2023-02-26T20:12:38.638Z,12.52
2023-02-26T20:15:05.346Z,13.52
2023-02-26T20:17:31.744Z,13.35
2023-02-26T20:19:58.209Z,12.57
2023-02-26T20:22:24.855Z,19.42
2023-02-26T20:24:52.662Z,15.27
2023-02-26T20:27:19.819Z,13.82
2023-02-26T20:29:46.728Z,13.50
2023-02-26T20:32:13.343Z,12.95
2023-02-26T20:34:39.881Z,13.50
2023-02-26T20:37:06.398Z,13.00
2023-02-26T20:39:32.911Z,14.60
2023-02-26T20:41:59.875Z,14.45
2023-02-26T20:44:26.403Z,23.13
2023-02-26T20:46:54.733Z,16.50
2023-02-26T20:49:21.258Z,15.23
2023-02-26T20:51:50.513Z,14.40
2023-02-26T20:54:17.887Z,14.23
2023-02-26T20:56:44.691Z,14.38
2023-02-26T20:59:11.182Z,13.93
2023-02-26T21:01:37.687Z,15.00
2023-02-26T21:04:05.312Z,13.15
2023-02-26T21:06:32.413Z,12.25
2023-02-26T21:08:59.788Z,16.17
2023-02-26T21:11:26.668Z,27.05
2023-02-26T21:13:53.721Z,15.38
2023-02-26T21:16:20.708Z,13.73
2023-02-26T21:18:47.316Z,14.23
2023-02-26T21:21:13.777Z,12.68
2023-02-26T21:23:40.268Z,13.43
2023-02-26T21:26:07.341Z,13.77
2023-02-26T21:28:34.073Z,13.40
2023-02-26T21:31:00.907Z,13.43
2023-02-26T21:33:27.445Z,13.57
2023-02-26T21:35:53.900Z,13.75
2023-02-26T21:38:20.437Z,12.88
2023-02-26T21:40:46.970Z,14.05
2023-02-26T21:43:13.590Z,13.55
2023-02-26T21:45:40.444Z,14.32
2023-02-26T21:48:07.024Z,14.18
2023-02-26T21:50:33.632Z,13.60
2023-02-26T21:53:00.335Z,14.20
2023-02-26T21:55:26.745Z,13.65
2023-02-26T21:57:53.211Z,12.88
2023-02-26T22:00:19.993Z,15.77
2023-02-26T22:02:46.521Z,22.08
2023-02-26T22:05:13.014Z,16.08
2023-02-26T22:07:39.582Z,14.30
2023-02-26T22:10:06.584Z,13.90
2023-02-26T22:12:33.284Z,14.20
2023-02-26T22:14:59.938Z,14.02
2023-02-26T22:17:26.420Z,13.70
2023-02-26T22:19:52.904Z,12.13
2023-02-26T22:22:19.390Z,12.23
2023-02-26T22:24:45.856Z,11.55
2023-02-26T22:27:12.330Z,12.40
2023-02-26T22:29:39.269Z,14.38
2023-02-26T22:32:07.204Z,12.20
2023-02-26T22:34:34.255Z,11.35
2023-02-26T22:37:01.366Z,11.50
2023-02-26T22:39:27.784Z,11.15
2023-02-26T22:41:54.275Z,11.38
2023-02-26T22:44:20.681Z,11.15
2023-02-26T22:46:47.553Z,12.07
2023-02-26T22:49:14.046Z,12.95
2023-02-26T22:51:40.465Z,14.50
2023-02-26T22:54:06.910Z,14.57
2023-02-26T22:56:33.292Z,15.35
2023-02-26T22:58:59.829Z,15.63
2023-02-26T23:01:26.527Z,15.82
2023-02-26T23:03:53.037Z,15.98
2023-02-26T23:06:19.530Z,14.65
2023-02-26T23:08:46.041Z,17.92
2023-02-26T23:11:12.630Z,16.02
2023-02-26T23:13:39.133Z,16.15
2023-02-26T23:16:07.552Z,15.70
2023-02-26T23:18:36.485Z,16.35
2023-02-26T23:21:03.409Z,15.00
2023-02-26T23:23:29.892Z,16.55
2023-02-26T23:25:56.388Z,14.48
2023-02-26T23:28:25.277Z,15.57
2023-02-26T23:30:51.969Z,14.52
2023-02-26T23:33:18.487Z,14.80
2023-02-26T23:35:44.979Z,14.05
2023-02-26T23:38:11.876Z,16.33
2023-02-26T23:40:38.381Z,16.83
2023-02-26T23:43:04.897Z,18.23
2023-02-26T23:45:31.422Z,18.00
2023-02-26T23:47:57.913Z,17.02
2023-02-26T23:50:24.413Z,17.95
2023-02-26T23:52:51.021Z,19.58
2023-02-26T23:55:17.741Z,19.63
2023-02-26T23:57:44.849Z,20.25
